createdAt,value
2023-03-17T00:00:16.989Z,29.845
2023-03-17T00:05:16.689Z,29.845
2023-03-17T00:10:19.886Z,29.845
2023-03-17T00:15:16.932Z,29.846
2023-03-17T00:20:16.911Z,29.850
2023-03-17T00:25:16.900Z,29.849
2023-03-17T00:30:16.994Z,29.851
2023-03-17T00:35:19.915Z,29.853
2023-03-17T00:40:19.906Z,29.854
2023-03-17T00:45:19.924Z,29.853
2023-03-17T00:50:19.884Z,29.857
2023-03-17T00:55:19.899Z,29.855
2023-03-17T01:00:19.900Z,29.859
2023-03-17T01:05:19.895Z,29.858
2023-03-17T01:10:19.886Z,29.858
2023-03-17T01:15:19.951Z,29.858
2023-03-17T01:20:19.861Z,29.856
2023-03-17T01:25:16.971Z,29.858
2023-03-17T01:30:16.962Z,29.860
2023-03-17T01:35:19.885Z,29.858
2023-03-17T01:40:16.944Z,29.861
2023-03-17T01:45:16.967Z,29.863
2023-03-17T01:50:16.990Z,29.865
2023-03-17T01:55:16.962Z,29.866
2023-03-17T02:00:20.130Z,29.869
2023-03-17T02:05:19.898Z,29.870
2023-03-17T02:10:19.913Z,29.870
2023-03-17T02:15:19.964Z,29.872
2023-03-17T02:20:19.929Z,29.869
2023-03-17T02:25:19.950Z,29.868
2023-03-17T02:30:19.922Z,29.869
2023-03-17T02:35:19.946Z,29.867
2023-03-17T02:40:19.962Z,29.869
2023-03-17T02:45:19.965Z,29.869
2023-03-17T02:50:19.965Z,29.872
2023-03-17T02:55:20.013Z,29.871
2023-03-17T03:00:19.986Z,29.867
2023-03-17T03:05:16.995Z,29.866
2023-03-17T03:10:20.025Z,29.867
2023-03-17T03:15:19.976Z,29.868
2023-03-17T03:20:20.000Z,29.867
2023-03-17T03:25:19.999Z,29.867
2023-03-17T03:30:19.989Z,29.870
2023-03-17T03:35:19.995Z,29.873
2023-03-17T03:40:19.980Z,29.872
2023-03-17T03:45:19.964Z,29.868
2023-03-17T03:50:19.928Z,29.870
2023-03-17T03:55:19.969Z,29.867
2023-03-17T04:00:19.178Z,29.869
2023-03-17T04:05:16.253Z,29.871
2023-03-17T04:10:16.278Z,29.871
2023-03-17T04:15:16.234Z,29.874
2023-03-17T04:20:16.317Z,29.876
2023-03-17T04:25:16.298Z,29.875
2023-03-17T04:30:16.298Z,29.874
2023-03-17T04:35:19.291Z,29.875
2023-03-17T04:40:19.319Z,29.877
2023-03-17T04:45:19.229Z,29.877
2023-03-17T04:50:19.241Z,29.876
2023-03-17T04:55:16.189Z,29.874
2023-03-17T05:00:19.290Z,29.873
2023-03-17T05:05:19.288Z,29.866
2023-03-17T05:10:19.303Z,29.867
2023-03-17T05:15:16.389Z,29.865
2023-03-17T05:20:16.333Z,29.867
2023-03-17T05:25:16.349Z,29.867
2023-03-17T05:30:16.313Z,29.869
2023-03-17T05:35:19.308Z,29.869
2023-03-17T05:40:16.300Z,29.873
2023-03-17T05:45:19.310Z,29.869
2023-03-17T05:50:16.374Z,29.867
2023-03-17T05:55:19.533Z,29.867
2023-03-17T06:00:19.330Z,29.873
2023-03-17T06:05:19.327Z,29.876
2023-03-17T06:10:16.308Z,29.877
2023-03-17T06:15:19.316Z,29.881
2023-03-17T06:20:19.356Z,29.877
2023-03-17T06:25:16.323Z,29.876
2023-03-17T06:30:19.346Z,29.876
2023-03-17T06:35:19.461Z,29.873
2023-03-17T06:40:19.353Z,29.874
2023-03-17T06:45:19.335Z,29.873
2023-03-17T06:50:19.346Z,29.868
2023-03-17T06:55:16.165Z,29.869
2023-03-17T07:00:19.365Z,29.867
2023-03-17T07:05:19.303Z,29.864
2023-03-17T07:10:19.357Z,29.863
2023-03-17T07:15:19.310Z,29.862
2023-03-17T07:20:19.322Z,29.864
2023-03-17T07:25:19.324Z,29.866
2023-03-17T07:30:16.393Z,29.865
2023-03-17T07:35:19.517Z,29.860
2023-03-17T07:40:16.347Z,29.859
2023-03-17T07:45:16.437Z,29.857
2023-03-17T07:50:16.410Z,29.858
2023-03-17T07:55:16.427Z,29.862
2023-03-17T08:00:19.374Z,29.865
2023-03-17T08:05:19.417Z,29.862
2023-03-17T08:10:19.390Z,29.863
2023-03-17T08:15:16.487Z,29.860
2023-03-17T08:20:19.471Z,29.859
2023-03-17T08:25:19.368Z,29.855
2023-03-17T08:30:19.384Z,29.851
2023-03-17T08:35:19.420Z,29.847
2023-03-17T08:40:19.368Z,29.846
2023-03-17T08:45:19.414Z,29.848
2023-03-17T08:50:16.325Z,29.844
2023-03-17T08:55:16.497Z,29.844
2023-03-17T09:00:16.391Z,29.841
2023-03-17T09:05:19.403Z,29.843
2023-03-17T09:10:19.463Z,29.839
2023-03-17T09:15:19.442Z,29.841
2023-03-17T09:20:19.371Z,29.842
2023-03-17T09:25:19.450Z,29.842
2023-03-17T09:30:19.389Z,29.846
2023-03-17T09:35:19.443Z,29.850
2023-03-17T09:40:16.426Z,29.847
2023-03-17T09:45:19.458Z,29.845
2023-03-17T09:50:16.598Z,29.847
2023-03-17T09:55:19.479Z,29.849
2023-03-17T10:00:19.447Z,29.848
2023-03-17T10:05:19.513Z,29.846
2023-03-17T10:10:19.420Z,29.847
2023-03-17T10:15:16.302Z,29.848
2023-03-17T10:20:19.561Z,29.847
2023-03-17T10:25:19.455Z,29.844
2023-03-17T10:30:16.556Z,29.845
2023-03-17T10:35:19.466Z,29.846
2023-03-17T10:40:18.546Z,29.847
2023-03-17T10:45:16.482Z,29.847
2023-03-17T10:50:19.568Z,29.849
2023-03-17T10:55:16.502Z,29.844
2023-03-17T11:00:16.491Z,29.842
2023-03-17T11:05:19.492Z,29.838
2023-03-17T11:10:16.539Z,29.834
2023-03-17T11:15:16.489Z,29.830
2023-03-17T11:20:19.602Z,29.830
2023-03-17T11:25:19.495Z,29.835
2023-03-17T11:30:19.438Z,29.834
2023-03-17T11:35:19.524Z,29.833
2023-03-17T11:40:19.445Z,29.833
2023-03-17T11:45:19.483Z,29.833
2023-03-17T11:50:19.487Z,29.837
2023-03-17T11:55:19.799Z,29.839
2023-03-17T12:00:16.699Z,29.839
2023-03-17T12:05:19.516Z,29.838
2023-03-17T12:10:16.456Z,29.837
2023-03-17T12:15:19.522Z,29.840
2023-03-17T12:20:16.598Z,29.841
2023-03-17T12:25:19.627Z,29.838
2023-03-17T12:30:19.529Z,29.837
2023-03-17T12:35:16.559Z,29.835
2023-03-17T12:40:19.541Z,29.832
2023-03-17T12:45:16.560Z,29.831
2023-03-17T12:50:19.549Z,29.831
2023-03-17T12:55:19.542Z,29.829
2023-03-17T13:00:16.588Z,29.827
2023-03-17T13:05:19.650Z,29.827
2023-03-17T13:10:19.554Z,29.825
2023-03-17T13:15:16.533Z,29.824
2023-03-17T13:20:19.526Z,29.821
2023-03-17T13:25:16.587Z,29.814
2023-03-17T13:30:16.360Z,29.814
2023-03-17T13:35:19.557Z,29.814
2023-03-17T13:40:19.560Z,29.814
2023-03-17T13:45:16.608Z,29.813
2023-03-17T13:50:19.556Z,29.810
2023-03-17T13:55:16.741Z,29.807
2023-03-17T14:00:19.586Z,29.808
2023-03-17T14:05:19.597Z,29.809
2023-03-17T14:10:16.640Z,29.812
2023-03-17T14:15:19.568Z,29.807
2023-03-17T14:20:16.665Z,29.807
2023-03-17T14:25:19.567Z,29.802
2023-03-17T14:30:16.578Z,29.801
2023-03-17T14:35:16.585Z,29.800
2023-03-17T14:40:19.573Z,29.796
2023-03-17T14:45:16.439Z,29.797
2023-03-17T14:50:19.627Z,29.795
2023-03-17T14:55:19.707Z,29.791
2023-03-17T15:00:19.563Z,29.785
2023-03-17T15:05:19.588Z,29.780
2023-03-17T15:10:19.618Z,29.778
2023-03-17T15:15:16.637Z,29.777
2023-03-17T15:20:16.651Z,29.775
2023-03-17T15:25:16.637Z,29.772
2023-03-17T15:30:19.622Z,29.769
2023-03-17T15:35:19.582Z,29.765
2023-03-17T15:40:19.962Z,29.768
2023-03-17T15:45:19.663Z,29.765
2023-03-17T15:50:16.680Z,29.761
2023-03-17T15:55:16.704Z,29.758
2023-03-17T16:00:16.629Z,29.753
2023-03-17T16:05:19.645Z,29.750
2023-03-17T16:10:19.637Z,29.745
2023-03-17T16:15:22.861Z,29.744
2023-03-17T16:20:16.627Z,29.741
2023-03-17T16:25:19.700Z,29.738
2023-03-17T16:30:16.738Z,29.740
2023-03-17T16:35:16.660Z,29.737
2023-03-17T16:40:19.703Z,29.737
2023-03-17T16:45:19.629Z,29.737
2023-03-17T16:50:19.613Z,29.732
2023-03-17T16:55:19.636Z,29.727
2023-03-17T17:00:19.718Z,29.721
2023-03-17T17:05:19.678Z,29.716
2023-03-17T17:10:19.683Z,29.716
2023-03-17T17:15:19.698Z,29.702
2023-03-17T17:20:16.748Z,29.701
2023-03-17T17:25:16.610Z,29.700
2023-03-17T17:30:19.641Z,29.694
2023-03-17T17:35:19.690Z,29.689
2023-03-17T17:40:16.658Z,29.686
2023-03-17T17:45:19.959Z,29.679
2023-03-17T17:50:19.704Z,29.673
2023-03-17T17:55:19.642Z,29.670
2023-03-17T18:00:19.697Z,29.671
2023-03-17T18:05:16.645Z,29.670
2023-03-17T18:10:16.729Z,29.666
2023-03-17T18:15:19.703Z,29.658
2023-03-17T18:20:19.784Z,29.653
2023-03-17T18:25:19.673Z,29.655
2023-03-17T18:30:19.687Z,29.649
2023-03-17T18:35:16.806Z,29.647
2023-03-17T18:40:18.918Z,29.646
2023-03-17T18:45:19.721Z,29.648
2023-03-17T18:50:19.708Z,29.643
2023-03-17T18:55:16.737Z,29.638
2023-03-17T19:00:19.728Z,29.637
2023-03-17T19:05:19.712Z,29.632
2023-03-17T19:10:19.672Z,29.625
2023-03-17T19:15:19.713Z,29.624
2023-03-17T19:20:19.735Z,29.618
2023-03-17T19:25:16.707Z,29.613
2023-03-17T19:30:19.784Z,29.609
2023-03-17T19:35:16.811Z,29.605
2023-03-17T19:40:19.707Z,29.602
2023-03-17T19:45:16.750Z,29.601
2023-03-17T19:50:19.796Z,29.601
2023-03-17T19:55:16.791Z,29.600
2023-03-17T20:00:19.847Z,29.599
2023-03-17T20:05:16.769Z,29.594
2023-03-17T20:10:19.770Z,29.590
2023-03-17T20:15:16.799Z,29.585
2023-03-17T20:20:19.788Z,29.580
2023-03-17T20:25:19.770Z,29.577
2023-03-17T20:30:19.779Z,29.573
2023-03-17T20:35:19.784Z,29.569
2023-03-17T20:40:16.731Z,29.565
2023-03-17T20:45:16.766Z,29.559
2023-03-17T20:50:16.832Z,29.554
2023-03-17T20:55:19.973Z,29.551
2023-03-17T21:00:19.810Z,29.548
2023-03-17T21:05:19.783Z,29.551
2023-03-17T21:10:19.772Z,29.551
2023-03-17T21:15:16.824Z,29.554
2023-03-17T21:20:16.658Z,29.552
2023-03-17T21:25:16.874Z,29.549
2023-03-17T21:30:19.834Z,29.545
2023-03-17T21:35:19.766Z,29.547
2023-03-17T21:40:16.854Z,29.555
2023-03-17T21:45:19.818Z,29.557
2023-03-17T21:50:19.808Z,29.553
2023-03-17T21:55:16.837Z,29.553
2023-03-17T22:00:16.677Z,29.547
2023-03-17T22:05:16.837Z,29.544
2023-03-17T22:10:19.791Z,29.540
2023-03-17T22:15:19.792Z,29.540
2023-03-17T22:20:16.990Z,29.538
2023-03-17T22:25:16.842Z,29.533
2023-03-17T22:30:16.831Z,29.532
2023-03-17T22:35:19.820Z,29.535
2023-03-17T22:40:19.892Z,29.536
2023-03-17T22:45:19.782Z,29.536
2023-03-17T22:50:19.826Z,29.537
2023-03-17T22:55:16.883Z,29.536
2023-03-17T23:00:16.916Z,29.535
2023-03-17T23:05:16.873Z,29.534
2023-03-17T23:10:19.876Z,29.529
2023-03-17T23:15:19.944Z,29.531
2023-03-17T23:20:17.104Z,29.538
2023-03-17T23:25:19.943Z,29.531
2023-03-17T23:30:19.889Z,29.523
2023-03-17T23:35:19.808Z,29.519
2023-03-17T23:40:19.859Z,29.520
2023-03-17T23:45:19.830Z,29.520
2023-03-17T23:50:19.841Z,29.528
2023-03-17T23:55:17.024Z,29.531
